Time;durP1;ratioP1;P1;durP2;ratioP2;P2;SDS_P1;SDS_P2;PMS_P1;PMS_P2;Temp;Humidity;BMP_temperature;BMP_pressure;BME280_temperature;BME280_humidity;BME280_pressure;Samples;Min_cycle;Max_cycle;Signal;HPM_P1;HPM_P2
2022/01/04 00:01:49;;;;;;;3.65;2.40;;;23.70;42.90;;;;;;6162098;28;80529;-67
2022/01/04 00:04:50;;;;;;;6.20;3.22;;;23.70;42.80;;;;;;6163478;28;80215;-67
2022/01/04 00:07:50;;;;;;;5.97;2.85;;;23.70;42.80;;;;;;6161565;28;81339;-66
2022/01/04 00:10:54;;;;;;;4.85;2.75;;;23.70;42.80;;;;;;6170526;28;80531;-65
2022/01/04 00:13:56;;;;;;;4.00;2.42;;;23.70;43.00;;;;;;6162210;28;84506;-64
2022/01/04 00:16:56;;;;;;;5.95;2.97;;;23.70;42.90;;;;;;6179502;27;81662;-65
2022/01/04 00:19:57;;;;;;;4.50;2.40;;;23.70;43.00;;;;;;6167603;28;80630;-65
2022/01/04 00:22:57;;;;;;;2.35;1.80;;;23.70;42.90;;;;;;6176940;27;80367;-65
2022/01/04 00:25:58;;;;;;;3.63;2.42;;;23.70;42.80;;;;;;6164863;28;80413;-65
2022/01/04 00:28:58;;;;;;;4.93;2.65;;;23.70;42.60;;;;;;6175942;27;81117;-66
2022/01/04 00:31:59;;;;;;;4.38;2.45;;;23.70;42.90;;;;;;6181074;27;80485;-66
2022/01/04 00:34:59;;;;;;;3.85;2.60;;;23.60;43.70;;;;;;6175563;27;80663;-66
2022/01/04 00:38:00;;;;;;;3.30;2.20;;;23.60;43.80;;;;;;6162997;28;82745;-66
2022/01/04 00:41:00;;;;;;;3.38;2.20;;;23.70;43.00;;;;;;6161630;28;80748;-66
2022/01/04 00:44:01;;;;;;;3.70;2.28;;;23.60;43.00;;;;;;6161157;28;80815;-66
2022/01/04 00:47:02;;;;;;;4.97;1.98;;;23.60;43.00;;;;;;6165838;28;80643;-65
2022/01/04 00:50:02;;;;;;;3.17;2.08;;;23.60;43.00;;;;;;6161440;28;81284;-66
2022/01/04 00:53:03;;;;;;;2.80;1.85;;;23.60;42.80;;;;;;6162867;28;80962;-66
2022/01/04 00:56:03;;;;;;;3.90;2.08;;;23.60;42.80;;;;;;6160614;28;80709;-66
2022/01/04 00:59:04;;;;;;;4.18;2.15;;;23.60;43.60;;;;;;6166020;28;80907;-67
2022/01/04 01:02:04;;;;;;;3.95;1.90;;;23.60;42.80;;;;;;6168660;28;80501;-66
2022/01/04 01:05:05;;;;;;;3.25;1.85;;;23.60;43.00;;;;;;6172925;27;80837;-66
2022/01/04 01:08:05;;;;;;;3.20;2.15;;;23.60;43.10;;;;;;6167505;28;80285;-66
2022/01/04 01:11:07;;;;;;;3.70;2.03;;;23.60;43.20;;;;;;6178157;27;80596;-67
2022/01/04 01:14:08;;;;;;;2.42;1.98;;;23.60;42.80;;;;;;6205057;27;82211;-66
2022/01/04 01:17:08;;;;;;;2.90;1.75;;;23.60;42.90;;;;;;6159583;28;82561;-66
2022/01/04 01:20:09;;;;;;;3.67;2.03;;;23.60;42.90;;;;;;6165488;28;80624;-67
2022/01/04 01:23:09;;;;;;;3.58;2.22;;;23.60;42.90;;;;;;6161296;28;80439;-67
2022/01/04 01:26:10;;;;;;;3.47;1.88;;;23.60;42.70;;;;;;6169052;28;85982;-67
2022/01/04 01:29:10;;;;;;;4.70;2.42;;;23.60;42.80;;;;;;6179214;27;81600;-67
2022/01/04 01:32:11;;;;;;;3.22;1.90;;;23.60;42.70;;;;;;6178680;27;80555;-66
2022/01/04 01:35:11;;;;;;;2.50;1.70;;;23.60;43.10;;;;;;6167134;28;80821;-66
2022/01/04 01:38:14;;;;;;;2.70;1.60;;;23.60;42.90;;;;;;6165989;28;81437;-66
2022/01/04 01:41:14;;;;;;;2.15;1.60;;;23.50;43.00;;;;;;6171981;28;80257;-66
2022/01/04 01:44:15;;;;;;;2.22;1.50;;;23.60;42.90;;;;;;6167977;27;80502;-64
2022/01/04 01:47:15;;;;;;;2.42;1.80;;;23.60;42.90;;;;;;6171824;28;80210;-65
2022/01/04 01:50:16;;;;;;;3.28;2.08;;;23.50;43.10;;;;;;6167735;27;80297;-65
2022/01/04 01:53:16;;;;;;;1.88;1.65;;;23.50;43.80;;;;;;6171939;28;81762;-66
2022/01/04 01:56:17;;;;;;;1.92;1.65;;;23.60;43.60;;;;;;6164102;28;81758;-66
2022/01/04 01:59:17;;;;;;;2.28;1.40;;;23.60;42.80;;;;;;6167124;28;80944;-66
2022/01/04 02:02:18;;;;;;;2.58;1.52;;;23.60;43.10;;;;;;6173918;28;81557;-66
2022/01/04 02:05:18;;;;;;;3.60;1.67;;;23.60;43.30;;;;;;6166051;27;80406;-66
2022/01/04 02:08:19;;;;;;;3.13;1.80;;;23.60;43.10;;;;;;6172296;28;80595;-65
2022/01/04 02:11:19;;;;;;;2.35;1.70;;;23.60;43.50;;;;;;6177324;27;81428;-65
2022/01/04 02:14:20;;;;;;;1.58;1.45;;;23.50;43.40;;;;;;6175368;27;80912;-65
2022/01/04 02:17:20;;;;;;;2.58;1.90;;;23.60;43.50;;;;;;6160990;28;80897;-65
2022/01/04 02:20:21;;;;;;;2.35;1.60;;;23.60;43.10;;;;;;6173713;28;80458;-65
2022/01/04 02:23:21;;;;;;;2.20;1.75;;;23.50;43.40;;;;;;6164146;28;80410;-65
2022/01/04 02:26:22;;;;;;;2.08;1.67;;;23.60;43.80;;;;;;6159832;28;81251;-65
2022/01/04 02:29:22;;;;;;;2.25;1.60;;;23.60;43.90;;;;;;6160425;28;80927;-66
2022/01/04 02:32:23;;;;;;;2.35;1.67;;;23.60;44.20;;;;;;6159755;28;80624;-65
2022/01/04 02:35:24;;;;;;;2.20;1.55;;;23.60;43.80;;;;;;6173000;28;80682;-66
2022/01/04 02:38:24;;;;;;;1.92;1.40;;;23.60;44.00;;;;;;6158036;28;81244;-65
2022/01/04 02:41:25;;;;;;;2.92;1.77;;;23.60;43.90;;;;;;6157800;28;81379;-65
2022/01/04 02:44:25;;;;;;;2.03;1.52;;;23.50;43.80;;;;;;6159644;28;80352;-65
2022/01/04 02:47:26;;;;;;;2.67;1.45;;;23.50;43.90;;;;;;6175537;28;80764;-65
2022/01/04 02:50:26;;;;;;;2.15;1.60;;;23.50;44.10;;;;;;6160579;28;80406;-66
2022/01/04 02:53:27;;;;;;;1.73;1.40;;;23.50;43.90;;;;;;6164635;28;80881;-65
2022/01/04 02:56:27;;;;;;;2.95;1.42;;;23.50;44.10;;;;;;6163638;28;80521;-65
2022/01/04 02:59:28;;;;;;;2.05;1.60;;;23.50;44.00;;;;;;6173358;28;80490;-65
2022/01/04 03:02:28;;;;;;;2.35;1.67;;;23.50;43.80;;;;;;6158451;28;80596;-65
2022/01/04 03:05:29;;;;;;;2.03;1.40;;;23.50;43.90;;;;;;6166606;28;80670;-66
2022/01/04 03:08:29;;;;;;;2.97;1.80;;;23.50;44.30;;;;;;6174817;28;80192;-65
2022/01/04 03:11:30;;;;;;;1.73;1.30;;;23.50;44.10;;;;;;6160002;28;80547;-65
2022/01/04 03:14:30;;;;;;;3.42;1.17;;;23.50;44.40;;;;;;6176076;28;80475;-65
2022/01/04 03:17:31;;;;;;;2.65;1.25;;;23.50;44.60;;;;;;6163439;28;80489;-66
2022/01/04 03:20:31;;;;;;;3.25;1.80;;;23.50;44.70;;;;;;6170723;27;80813;-66
2022/01/04 03:23:32;;;;;;;3.22;1.45;;;23.50;44.10;;;;;;6163126;28;80899;-65
2022/01/04 03:26:32;;;;;;;1.45;1.17;;;23.50;44.00;;;;;;6167774;27;80591;-66
2022/01/04 03:29:33;;;;;;;1.75;1.45;;;23.50;43.80;;;;;;6160893;28;81632;-65
2022/01/04 03:32:33;;;;;;;1.73;1.42;;;23.60;43.90;;;;;;6181150;27;80770;-65
2022/01/04 03:35:34;;;;;;;1.50;1.20;;;23.60;44.40;;;;;;6161820;28;81460;-65
2022/01/04 03:38:34;;;;;;;1.65;1.30;;;23.60;43.80;;;;;;6173204;27;80564;-68
2022/01/04 03:41:37;;;;;;;1.50;1.35;;;23.60;43.80;;;;;;6170804;27;81112;-65
2022/01/04 03:44:38;;;;;;;1.85;1.40;;;23.70;43.60;;;;;;6180295;27;80667;-66
2022/01/04 03:47:38;;;;;;;2.13;1.38;;;23.70;43.60;;;;;;6163460;28;80680;-66
2022/01/04 03:50:40;;;;;;;2.00;1.30;;;23.70;43.90;;;;;;6162596;28;80570;-66
2022/01/04 03:53:40;;;;;;;1.65;1.30;;;23.70;43.70;;;;;;6162733;28;80374;-66
2022/01/04 03:56:41;;;;;;;2.05;1.67;;;23.70;43.80;;;;;;6164009;28;81496;-67
2022/01/04 03:59:41;;;;;;;2.58;1.90;;;23.70;43.70;;;;;;6163394;28;80761;-66
2022/01/04 04:02:42;;;;;;;1.33;1.10;;;23.80;43.50;;;;;;6168308;28;80123;-66
2022/01/04 04:05:42;;;;;;;2.42;1.60;;;23.80;43.50;;;;;;6176904;27;80637;-65
2022/01/04 04:08:43;;;;;;;1.38;1.23;;;23.80;43.50;;;;;;6167583;28;82063;-64
2022/01/04 04:11:43;;;;;;;2.05;1.30;;;23.80;43.50;;;;;;6178954;27;81692;-65
2022/01/04 04:14:44;;;;;;;1.58;1.42;;;23.90;43.50;;;;;;6178592;27;80813;-65
2022/01/04 04:17:44;;;;;;;1.35;1.20;;;23.90;44.10;;;;;;6165245;27;80129;-64
2022/01/04 04:20:45;;;;;;;1.20;1.10;;;23.90;43.60;;;;;;6162318;28;81603;-65
2022/01/04 04:23:45;;;;;;;2.13;1.20;;;23.90;43.70;;;;;;6160913;28;84991;-66
2022/01/04 04:26:46;;;;;;;3.08;1.25;;;23.90;43.60;;;;;;6161509;28;81416;-67
2022/01/04 04:29:46;;;;;;;2.25;1.30;;;23.90;43.50;;;;;;6164243;27;80449;-67
2022/01/04 04:32:47;;;;;;;1.65;1.48;;;23.90;43.60;;;;;;6165436;28;81265;-66
2022/01/04 04:35:47;;;;;;;1.08;1.05;;;23.90;43.50;;;;;;6162771;28;81642;-67
2022/01/04 04:38:48;;;;;;;1.52;1.42;;;23.90;44.10;;;;;;6158880;28;80486;-67
2022/01/04 04:41:49;;;;;;;1.50;1.40;;;23.90;43.60;;;;;;6162385;28;80478;-67
2022/01/04 04:44:50;;;;;;;1.30;1.20;;;23.90;43.60;;;;;;6165837;28;81420;-67
2022/01/04 04:47:50;;;;;;;3.38;1.50;;;23.90;43.60;;;;;;6163055;27;81502;-67
2022/01/04 04:50:51;;;;;;;2.03;1.35;;;23.90;43.40;;;;;;6169789;27;81195;-67
2022/01/04 04:53:51;;;;;;;1.60;1.20;;;24.00;43.50;;;;;;6162332;28;83277;-68
2022/01/04 04:56:52;;;;;;;1.83;1.20;;;24.00;43.50;;;;;;6175530;27;80525;-67
2022/01/04 04:59:52;;;;;;;1.98;1.20;;;24.00;43.20;;;;;;6170790;28;80353;-67
2022/01/04 05:02:53;;;;;;;1.17;1.05;;;24.00;43.20;;;;;;6167143;27;81025;-67
2022/01/04 05:05:53;;;;;;;2.25;1.20;;;24.00;43.10;;;;;;6175089;27;80559;-68
2022/01/04 05:08:54;;;;;;;4.15;1.23;;;24.00;43.10;;;;;;6167062;28;80755;-67
2022/01/04 05:11:54;;;;;;;1.38;1.20;;;24.00;43.00;;;;;;6165943;28;81070;-67
2022/01/04 05:14:55;;;;;;;1.35;1.10;;;24.00;43.00;;;;;;6167475;28;87444;-68
2022/01/04 05:17:55;;;;;;;1.98;1.30;;;24.00;43.00;;;;;;6158994;28;80997;-66
2022/01/04 05:20:56;;;;;;;2.45;1.40;;;24.00;43.00;;;;;;6159042;28;80652;-69
2022/01/04 05:23:57;;;;;;;4.47;1.70;;;24.00;43.30;;;;;;6160473;28;81395;-66
2022/01/04 05:26:57;;;;;;;1.70;1.25;;;24.10;43.30;;;;;;6160826;28;80510;-65
2022/01/04 05:29:58;;;;;;;2.70;1.40;;;24.10;43.60;;;;;;6159845;28;81439;-66
2022/01/04 05:32:58;;;;;;;1.50;1.33;;;24.00;45.20;;;;;;6160233;28;81488;-67
2022/01/04 05:35:59;;;;;;;1.15;1.13;;;23.90;46.10;;;;;;6160248;28;81540;-65
2022/01/04 05:39:00;;;;;;;5.82;1.63;;;23.90;47.00;;;;;;6163030;27;81327;-66
2022/01/04 05:42:01;;;;;;;1.50;1.30;;;23.80;48.10;;;;;;6164712;28;80746;-67
2022/01/04 05:45:01;;;;;;;12.80;7.05;;;23.80;48.70;;;;;;6158173;28;83179;-67
2022/01/04 05:48:02;;;;;;;125.63;61.53;;;23.70;49.50;;;;;;6156597;28;82644;-66
2022/01/04 05:51:02;;;;;;;236.75;110.43;;;23.60;50.50;;;;;;6155594;28;83248;-65
2022/01/04 05:54:03;;;;;;;204.15;96.35;;;23.50;51.60;;;;;;6151285;28;85609;-66
2022/01/04 05:57:03;;;;;;;146.10;69.88;;;23.50;52.00;;;;;;6155688;28;86519;-66
2022/01/04 06:00:04;;;;;;;157.65;76.35;;;23.60;52.50;;;;;;6155344;28;84896;-67
2022/01/04 06:03:09;;;;;;;203.63;104.60;;;23.60;53.20;;;;;;6156189;28;83423;-67
2022/01/04 06:06:09;;;;;;;231.13;115.18;;;23.50;53.50;;;;;;6152890;28;85681;-66
2022/01/04 06:09:19;;;;;;;172.50;86.78;;;23.50;53.80;;;;;;6146666;28;93546;-66
2022/01/04 06:15:26;;;;;;;105.45;49.65;;;23.60;54.00;;;;;;6159302;28;83009;-66
2022/01/04 06:18:27;;;;;;;87.20;39.97;;;23.50;54.60;;;;;;6156445;28;83418;-67
2022/01/04 06:21:27;;;;;;;71.80;32.83;;;23.50;54.70;;;;;;6152778;28;83947;-66
2022/01/04 06:24:28;;;;;;;51.45;26.10;;;23.50;54.90;;;;;;6155749;28;83479;-66
2022/01/04 06:27:28;;;;;;;47.58;23.58;;;23.60;55.00;;;;;;6154848;28;83158;-66
2022/01/04 06:30:29;;;;;;;39.15;20.40;;;23.60;55.00;;;;;;6150255;28;83492;-68
2022/01/04 06:33:29;;;;;;;37.05;18.67;;;23.70;54.40;;;;;;6153799;28;83829;-66
2022/01/04 06:36:30;;;;;;;37.47;18.67;;;23.70;53.80;;;;;;6154558;28;83413;-66
2022/01/04 06:39:30;;;;;;;34.53;17.17;;;23.70;53.10;;;;;;6155110;28;83175;-65
2022/01/04 06:42:31;;;;;;;36.38;16.30;;;23.80;52.90;;;;;;6155248;28;82956;-67
2022/01/04 06:45:31;;;;;;;31.67;14.85;;;23.80;52.50;;;;;;6155366;28;83887;-64
2022/01/04 06:48:32;;;;;;;27.77;13.68;;;23.90;52.10;;;;;;6154975;28;83219;-64
2022/01/04 06:51:32;;;;;;;28.23;12.95;;;23.90;51.80;;;;;;6155963;28;83334;-70
2022/01/04 06:54:33;;;;;;;28.80;13.88;;;23.80;51.50;;;;;;6161014;28;83267;-68
2022/01/04 06:57:33;;;;;;;22.73;11.63;;;23.80;51.30;;;;;;6157629;28;83525;-69
2022/01/04 07:00:34;;;;;;;25.33;12.38;;;23.80;50.70;;;;;;6159781;28;83362;-69
2022/01/04 07:03:34;;;;;;;24.38;12.25;;;23.80;50.20;;;;;;6158437;28;83148;-70
2022/01/04 07:06:35;;;;;;;22.27;10.82;;;23.70;49.70;;;;;;6154841;28;83267;-68
2022/01/04 07:09:35;;;;;;;17.42;9.02;;;23.70;49.20;;;;;;6163618;28;84133;-68
2022/01/04 07:12:36;;;;;;;17.45;9.65;;;23.70;48.70;;;;;;6173806;28;85009;-65
2022/01/04 07:15:36;;;;;;;17.83;8.68;;;23.70;48.10;;;;;;6168784;28;80683;-67
2022/01/04 07:18:37;;;;;;;13.18;7.88;;;23.70;48.10;;;;;;6161248;28;81265;-66
2022/01/04 07:21:37;;;;;;;14.63;8.25;;;23.70;47.90;;;;;;6156282;28;80977;-63
2022/01/04 07:24:38;;;;;;;15.23;6.88;;;23.70;47.30;;;;;;6161893;28;81189;-64
2022/01/04 07:27:39;;;;;;;15.30;7.28;;;23.70;47.50;;;;;;6164615;28;80805;-65
2022/01/04 07:30:39;;;;;;;12.43;6.60;;;23.70;46.90;;;;;;6159013;28;80148;-67
2022/01/04 07:33:40;;;;;;;11.90;7.07;;;23.70;46.80;;;;;;6164359;28;81458;-68
2022/01/04 07:36:40;;;;;;;11.57;7.00;;;23.70;46.60;;;;;;6163919;28;80801;-69
2022/01/04 07:39:41;;;;;;;16.65;6.65;;;23.70;46.70;;;;;;6163804;28;80514;-68
2022/01/04 07:42:41;;;;;;;16.35;8.82;;;23.70;46.60;;;;;;6164759;28;80567;-72
2022/01/04 07:45:42;;;;;;;16.33;9.27;;;23.60;46.50;;;;;;6162321;28;81243;-71
2022/01/04 07:48:42;;;;;;;18.08;9.55;;;23.60;46.90;;;;;;6163950;28;80839;-73
2022/01/04 07:51:43;;;;;;;17.23;9.05;;;23.70;47.20;;;;;;6166015;28;81813;-73
2022/01/04 07:54:43;;;;;;;14.98;8.50;;;23.70;47.20;;;;;;6163260;28;80237;-72
2022/01/04 07:57:45;;;;;;;15.80;8.25;;;23.70;47.60;;;;;;6163456;28;80782;-71
2022/01/04 08:00:45;;;;;;;12.15;7.38;;;23.70;47.50;;;;;;6165531;28;81970;-72
2022/01/04 08:03:46;;;;;;;12.63;7.60;;;23.70;48.00;;;;;;6167133;28;80555;-72
2022/01/04 08:06:46;;;;;;;14.02;6.97;;;23.70;47.50;;;;;;6167711;28;80416;-71
2022/01/04 08:09:47;;;;;;;12.35;6.47;;;23.70;47.90;;;;;;6162147;28;80509;-69
2022/01/04 08:12:47;;;;;;;12.30;6.40;;;23.70;47.30;;;;;;6156181;28;81007;-68
2022/01/04 08:15:48;;;;;;;12.82;7.18;;;23.70;47.10;;;;;;6163131;28;81503;-73
2022/01/04 08:18:49;;;;;;;13.57;5.75;;;23.70;47.10;;;;;;6166207;28;80735;-72
2022/01/04 08:21:49;;;;;;;10.30;5.35;;;23.80;47.20;;;;;;6170043;28;80719;-73
2022/01/04 08:24:50;;;;;;;9.38;5.43;;;23.80;47.30;;;;;;6164551;28;80552;-71
2022/01/04 08:27:52;;;;;;;9.05;5.15;;;23.80;47.30;;;;;;6161276;28;81365;-75
2022/01/04 08:30:52;;;;;;;7.30;4.57;;;23.70;47.80;;;;;;6160724;28;80401;-72
2022/01/04 08:33:53;;;;;;;7.47;3.83;;;23.70;46.50;;;;;;6160197;28;80660;-68
2022/01/04 08:36:53;;;;;;;5.78;3.75;;;23.70;45.80;;;;;;6161057;28;80419;-68
2022/01/04 08:39:54;;;;;;;7.35;3.90;;;23.70;45.40;;;;;;6150065;28;80236;-66
2022/01/04 08:42:54;;;;;;;5.80;3.17;;;23.60;45.00;;;;;;6155035;28;80388;-72
2022/01/04 08:45:55;;;;;;;4.25;2.95;;;23.60;44.30;;;;;;6161179;28;80995;-71
2022/01/04 08:48:56;;;;;;;5.85;3.60;;;23.60;44.70;;;;;;6160596;28;80772;-70
2022/01/04 08:51:57;;;;;;;5.32;3.10;;;23.60;43.90;;;;;;6160351;28;80941;-71
2022/01/04 08:54:57;;;;;;;5.10;2.78;;;23.60;43.60;;;;;;6160280;28;80685;-70
2022/01/04 08:57:58;;;;;;;4.25;2.70;;;23.50;43.60;;;;;;6161661;28;81197;-70
2022/01/04 09:01:01;;;;;;;4.18;2.85;;;23.50;43.10;;;;;;6156918;28;80308;-69
2022/01/04 09:04:02;;;;;;;4.28;2.40;;;23.50;42.90;;;;;;6158220;28;80967;-69
2022/01/04 09:07:02;;;;;;;3.30;2.47;;;23.50;42.80;;;;;;6160455;28;80297;-72
2022/01/04 09:10:03;;;;;;;6.43;2.65;;;23.50;42.70;;;;;;6158377;28;81291;-71
2022/01/04 09:19:49;;;;;;;5.47;2.60;;;23.50;42.20;;;;;;6157211;28;80917;-70
2022/01/04 09:22:50;;;;;;;3.75;2.47;;;23.40;42.50;;;;;;6158944;28;82639;-69
2022/01/04 09:25:50;;;;;;;2.88;2.22;;;23.40;42.30;;;;;;6159788;28;81464;-68
2022/01/04 09:28:51;;;;;;;3.55;2.28;;;23.40;42.20;;;;;;6159555;28;81452;-69
2022/01/04 09:31:53;;;;;;;3.70;2.00;;;23.40;42.20;;;;;;6159830;28;80434;-68
2022/01/04 09:34:53;;;;;;;3.65;2.22;;;23.40;42.30;;;;;;6160030;28;80570;-69
2022/01/04 09:37:54;;;;;;;3.72;2.47;;;23.40;42.60;;;;;;6160035;28;80710;-68
2022/01/04 09:40:55;;;;;;;3.75;2.58;;;23.40;42.20;;;;;;6158830;28;80857;-68
2022/01/04 09:43:56;;;;;;;3.47;2.80;;;23.30;42.30;;;;;;6161567;28;80833;-68
2022/01/04 09:46:58;;;;;;;4.82;2.58;;;23.30;42.30;;;;;;6155335;28;80843;-68
2022/01/04 09:49:59;;;;;;;4.68;3.05;;;23.30;42.10;;;;;;6168786;28;80519;-69
2022/01/04 09:52:59;;;;;;;5.18;2.90;;;23.30;42.60;;;;;;6161680;28;80350;-68
2022/01/04 09:56:00;;;;;;;4.03;2.63;;;23.30;42.10;;;;;;6160588;28;80158;-71
2022/01/04 09:59:00;;;;;;;3.75;2.60;;;23.30;41.80;;;;;;6160113;28;80365;-68
2022/01/04 10:02:02;;;;;;;4.45;2.70;;;23.30;41.70;;;;;;6159029;28;81833;-69
2022/01/04 10:05:02;;;;;;;4.28;2.85;;;23.30;42.10;;;;;;6157921;28;81613;-71
2022/01/04 10:08:03;;;;;;;4.00;2.65;;;23.30;41.30;;;;;;6158301;28;80713;-71
2022/01/04 10:11:04;;;;;;;4.03;2.53;;;23.20;41.40;;;;;;6159211;28;80933;-70
2022/01/04 10:14:04;;;;;;;4.20;2.65;;;23.20;41.80;;;;;;6159700;28;80456;-71
2022/01/04 10:17:06;;;;;;;3.13;2.50;;;23.20;41.70;;;;;;6168902;28;81316;-69
2022/01/04 10:20:07;;;;;;;2.85;2.22;;;23.30;41.90;;;;;;6158492;28;80816;-69
2022/01/04 10:23:08;;;;;;;3.85;2.55;;;23.20;42.00;;;;;;6160598;28;80297;-68
2022/01/04 10:26:08;;;;;;;3.80;2.70;;;23.30;41.90;;;;;;6133560;28;81713;-67
2022/01/04 10:29:08;;;;;;;3.72;2.40;;;23.30;42.00;;;;;;6151646;28;80825;-68
2022/01/04 10:32:10;;;;;;;3.38;2.47;;;23.30;42.40;;;;;;6159356;28;81215;-70
2022/01/04 10:35:11;;;;;;;4.05;2.45;;;23.30;42.50;;;;;;6158423;28;82283;-69
2022/01/04 10:38:11;;;;;;;3.80;2.60;;;23.30;42.50;;;;;;6158830;28;80334;-69
2022/01/04 10:41:12;;;;;;;3.70;2.55;;;23.30;42.40;;;;;;6159119;28;81083;-71
2022/01/04 10:44:12;;;;;;;3.35;2.60;;;23.30;42.60;;;;;;6157578;28;80658;-71
2022/01/04 10:47:13;;;;;;;3.88;2.75;;;23.40;42.50;;;;;;6158929;28;80792;-70
2022/01/04 10:50:13;;;;;;;4.38;2.40;;;23.40;42.60;;;;;;6159527;28;80728;-70
2022/01/04 10:53:14;;;;;;;4.90;2.30;;;23.40;42.50;;;;;;6158119;28;80336;-72
2022/01/04 10:56:14;;;;;;;2.78;2.17;;;23.40;42.80;;;;;;6159192;28;80298;-71
2022/01/04 10:59:15;;;;;;;10.77;3.38;;;23.40;42.70;;;;;;6158496;28;84093;-72
2022/01/04 11:02:15;;;;;;;10.23;3.25;;;23.40;43.40;;;;;;6158900;28;80354;-71
2022/01/04 11:05:16;;;;;;;5.75;2.67;;;23.40;43.70;;;;;;6156687;28;80634;-72
2022/01/04 11:08:17;;;;;;;5.63;3.03;;;23.50;43.10;;;;;;6153202;28;80332;-73
2022/01/04 11:11:18;;;;;;;12.05;3.17;;;23.40;43.00;;;;;;6158316;28;80722;-69
2022/01/04 11:14:19;;;;;;;4.22;2.53;;;23.50;43.00;;;;;;6157651;28;80398;-71
2022/01/04 11:17:19;;;;;;;5.28;2.70;;;23.50;43.20;;;;;;6154534;28;80515;-72
2022/01/04 11:20:20;;;;;;;5.03;2.97;;;23.50;43.40;;;;;;6154699;28;80232;-72
2022/01/04 11:23:20;;;;;;;5.38;2.58;;;23.50;43.60;;;;;;6158096;28;82256;-72
2022/01/04 11:26:20;;;;;;;9.40;2.95;;;23.60;43.70;;;;;;6157388;28;80534;-72
2022/01/04 11:29:21;;;;;;;5.50;2.85;;;23.60;43.80;;;;;;6158738;27;80570;-70
2022/01/04 11:32:22;;;;;;;5.88;2.88;;;23.60;44.60;;;;;;6153632;28;82038;-73
2022/01/04 11:35:24;;;;;;;8.88;2.70;;;23.60;44.10;;;;;;6157884;28;81658;-71
2022/01/04 11:38:25;;;;;;;5.50;3.00;;;23.60;44.20;;;;;;6157589;28;80366;-71
2022/01/04 11:41:25;;;;;;;4.57;2.65;;;23.60;44.10;;;;;;6161583;28;80558;-72
2022/01/04 11:44:26;;;;;;;4.47;2.60;;;23.60;44.30;;;;;;6161803;28;80493;-73
2022/01/04 11:47:26;;;;;;;4.63;2.80;;;23.60;44.30;;;;;;6162270;28;80516;-70
2022/01/04 11:50:27;;;;;;;7.75;3.17;;;23.60;44.70;;;;;;6163250;28;80942;-72
2022/01/04 11:53:27;;;;;;;5.22;2.53;;;23.60;44.40;;;;;;6163311;28;81126;-70
2022/01/04 11:56:28;;;;;;;5.72;3.13;;;23.60;44.60;;;;;;6161863;28;80449;-71
2022/01/04 11:59:28;;;;;;;6.07;2.80;;;23.60;44.60;;;;;;6160103;28;80963;-71
2022/01/04 12:02:29;;;;;;;5.47;2.92;;;23.60;44.70;;;;;;6161626;28;80472;-70
2022/01/04 12:05:29;;;;;;;4.05;2.85;;;23.60;44.70;;;;;;6161901;28;80892;-70
2022/01/04 12:08:30;;;;;;;5.85;3.47;;;23.60;44.60;;;;;;6160890;28;81920;-70
2022/01/04 12:11:30;;;;;;;7.50;3.25;;;23.60;44.60;;;;;;6162998;27;82056;-70
2022/01/04 12:14:33;;;;;;;5.63;3.17;;;23.60;44.70;;;;;;6160887;28;80535;-72
2022/01/04 12:17:34;;;;;;;6.13;3.15;;;23.60;44.60;;;;;;6155174;28;81820;-72
2022/01/04 12:20:35;;;;;;;5.15;2.95;;;23.60;44.50;;;;;;6160967;28;80689;-71
2022/01/04 12:23:35;;;;;;;4.65;3.10;;;23.60;44.80;;;;;;6161466;28;86801;-70
2022/01/04 12:26:36;;;;;;;5.80;2.90;;;23.60;44.80;;;;;;6161564;28;79920;-70
2022/01/04 12:29:36;;;;;;;4.20;2.97;;;23.60;45.40;;;;;;6160611;28;82785;-71
2022/01/04 12:32:37;;;;;;;7.07;3.67;;;23.50;45.10;;;;;;6160991;28;81754;-71
2022/01/04 12:35:37;;;;;;;12.52;4.15;;;23.50;45.10;;;;;;6159113;28;81744;-69
2022/01/04 12:38:38;;;;;;;7.03;3.90;;;23.30;44.40;;;;;;6159271;28;81649;-68
2022/01/04 12:41:38;;;;;;;6.13;3.20;;;23.00;45.30;;;;;;6162310;28;81956;-68
2022/01/04 12:44:39;;;;;;;6.10;3.75;;;22.50;45.70;;;;;;6157067;28;80162;-68
2022/01/04 12:47:39;;;;;;;7.25;4.00;;;22.10;46.50;;;;;;6159803;28;82453;-69
2022/01/04 12:50:40;;;;;;;6.45;3.80;;;22.10;47.10;;;;;;6156958;28;87609;-69
2022/01/04 12:53:40;;;;;;;9.85;3.88;;;21.90;47.40;;;;;;6161416;28;80382;-70
2022/01/04 12:56:41;;;;;;;5.28;3.28;;;22.30;47.90;;;;;;6158735;28;82182;-68
2022/01/04 12:59:42;;;;;;;8.02;3.38;;;22.50;47.40;;;;;;6160966;28;82383;-71
2022/01/04 13:02:42;;;;;;;8.15;3.47;;;22.60;47.40;;;;;;6159484;28;80234;-74
2022/01/04 13:05:43;;;;;;;5.95;2.72;;;22.70;47.50;;;;;;6159148;28;83858;-71
2022/01/04 13:08:43;;;;;;;4.65;2.80;;;22.90;47.60;;;;;;6161283;28;80453;-70
2022/01/04 13:11:44;;;;;;;6.13;3.00;;;22.90;47.40;;;;;;6159548;28;80970;-77
2022/01/04 13:14:44;;;;;;;6.97;3.00;;;23.00;47.30;;;;;;6160205;28;80673;-73
2022/01/04 13:17:45;;;;;;;4.88;3.20;;;23.00;47.30;;;;;;6159216;28;80153;-69
2022/01/04 13:20:45;;;;;;;4.38;2.95;;;23.10;46.90;;;;;;6159630;28;84844;-72
2022/01/04 13:23:46;;;;;;;7.03;2.92;;;23.10;47.10;;;;;;6160420;28;82818;-71
2022/01/04 13:26:46;;;;;;;7.32;3.05;;;23.20;47.20;;;;;;6160605;28;80750;-71
2022/01/04 13:29:47;;;;;;;7.47;3.00;;;23.20;47.20;;;;;;6160118;28;82815;-72
2022/01/04 13:32:47;;;;;;;4.38;3.20;;;23.20;47.70;;;;;;6160970;28;80388;-70
2022/01/04 13:35:48;;;;;;;3.90;2.90;;;23.20;47.00;;;;;;6160293;28;80280;-70
2022/01/04 13:38:50;;;;;;;5.45;2.92;;;23.20;47.00;;;;;;6159804;28;81615;-71
2022/01/04 13:41:51;;;;;;;4.97;3.08;;;23.20;46.90;;;;;;6160354;28;80610;-71
2022/01/04 13:44:51;;;;;;;4.40;2.90;;;23.30;47.00;;;;;;6160515;28;80661;-71
2022/01/04 13:47:52;;;;;;;5.50;2.97;;;23.30;47.00;;;;;;6159855;28;83604;-71
2022/01/04 13:50:52;;;;;;;5.15;2.65;;;23.30;47.30;;;;;;6157910;28;84599;-72
2022/01/04 13:53:59;;;;;;;8.60;2.63;;;23.30;47.40;;;;;;6159952;28;80496;-73
2022/01/04 13:56:59;;;;;;;6.28;2.97;;;23.30;47.20;;;;;;6159876;28;80381;-70
2022/01/04 14:00:00;;;;;;;4.35;2.88;;;23.30;47.20;;;;;;6158663;28;81533;-68
2022/01/04 14:03:00;;;;;;;6.20;2.90;;;23.40;47.10;;;;;;6151267;28;80687;-69
2022/01/04 14:06:01;;;;;;;6.82;2.83;;;23.30;46.90;;;;;;6155286;28;80787;-69
2022/01/04 14:09:01;;;;;;;7.05;3.30;;;23.30;46.70;;;;;;6157353;28;80504;-69
2022/01/04 14:12:02;;;;;;;6.68;3.78;;;23.30;46.60;;;;;;6154183;28;80555;-71
2022/01/04 14:15:02;;;;;;;5.95;3.35;;;23.30;46.50;;;;;;6167223;28;80550;-67
2022/01/04 14:18:03;;;;;;;5.75;3.78;;;23.20;46.40;;;;;;6158692;28;80848;-68
2022/01/04 14:21:03;;;;;;;9.57;4.05;;;23.20;46.50;;;;;;6159993;28;80835;-68
2022/01/04 14:24:06;;;;;;;6.90;4.13;;;23.20;46.50;;;;;;6190560;28;82059;-68
2022/01/04 14:27:06;;;;;;;10.88;5.00;;;23.20;46.10;;;;;;6144861;28;80368;-68
2022/01/04 14:30:10;;;;;;;7.05;4.60;;;23.10;46.10;;;;;;6158033;28;80690;-67
2022/01/04 14:33:12;;;;;;;11.95;4.95;;;23.20;46.30;;;;;;6157508;28;82203;-67
2022/01/04 14:36:13;;;;;;;7.78;4.93;;;23.10;46.30;;;;;;6158784;28;80514;-67
2022/01/04 14:39:13;;;;;;;6.97;4.72;;;23.10;46.10;;;;;;6158830;28;80559;-67
2022/01/04 14:42:14;;;;;;;10.77;5.00;;;23.10;46.10;;;;;;6158715;28;80543;-68
2022/01/04 14:45:15;;;;;;;8.75;5.55;;;23.10;45.80;;;;;;6157485;28;80655;-68
2022/01/04 14:48:17;;;;;;;11.05;5.60;;;23.10;45.80;;;;;;6156830;28;80833;-67
2022/01/04 14:51:18;;;;;;;11.02;6.22;;;23.10;45.80;;;;;;6157056;28;81639;-67
2022/01/04 14:54:18;;;;;;;12.10;6.75;;;23.10;46.40;;;;;;6158184;28;80727;-68
2022/01/04 14:57:19;;;;;;;11.88;7.22;;;23.10;46.30;;;;;;6158874;28;81465;-67
2022/01/04 15:00:19;;;;;;;13.40;7.68;;;23.10;45.70;;;;;;6157991;28;80753;-67
2022/01/04 15:03:20;;;;;;;14.32;7.90;;;23.10;45.70;;;;;;6156924;28;80723;-68
2022/01/04 15:06:20;;;;;;;13.73;7.85;;;23.00;45.50;;;;;;6156959;28;80782;-69
2022/01/04 15:09:21;;;;;;;13.52;7.60;;;23.00;45.40;;;;;;6157917;28;81127;-68
2022/01/04 15:12:21;;;;;;;13.38;7.72;;;23.00;45.40;;;;;;6158010;28;81065;-68
2022/01/04 15:15:22;;;;;;;11.75;7.50;;;23.00;45.70;;;;;;6159326;28;82398;-67
2022/01/04 15:18:23;;;;;;;15.52;7.72;;;23.00;45.50;;;;;;6161897;28;81655;-62
2022/01/04 15:21:24;;;;;;;12.95;7.55;;;23.00;45.70;;;;;;6153994;28;80876;-66
2022/01/04 15:24:24;;;;;;;10.07;6.80;;;23.00;45.90;;;;;;6154195;28;82008;-65
2022/01/04 15:27:26;;;;;;;12.80;6.50;;;23.00;46.00;;;;;;6161532;28;81915;-67
2022/01/04 15:30:28;;;;;;;15.27;7.43;;;23.00;45.80;;;;;;6161255;28;80754;-66
2022/01/04 15:33:29;;;;;;;11.30;7.03;;;23.00;46.40;;;;;;6157568;28;81928;-65
2022/01/04 15:36:29;;;;;;;14.00;7.13;;;23.00;46.00;;;;;;6165009;28;80431;-66
2022/01/04 15:39:31;;;;;;;11.48;6.85;;;23.00;45.90;;;;;;6155764;28;81601;-66
2022/01/04 15:42:32;;;;;;;11.68;6.88;;;23.00;46.10;;;;;;6160538;28;80651;-65
2022/01/04 15:45:32;;;;;;;9.60;6.55;;;23.00;45.90;;;;;;6161978;28;80452;-65